Auburn University, Alabama
Current Conditions -  °F | °C
As of 8:35 AM on Saturday 22 Nov 2014 (Local Time) from KAUO Reporting Station
Scattered Clouds Scattered Clouds  
Wind Chill: 43°   Ceiling: Unl
Heat Index: 48°   Visibility: 10mi
Dew Point: 37°   Wind: 14mph
Humidity: 66%   Direction: 80°E
Pressure: 30.42"   Gusts: NA
Location:  32.61°N, 85.48°W
Report Text: KAUO 221435Z AUTO 08012KT 10SM SCT050 09/03 A3042 RMK AO1
Loading
Personal Weather Stations






























Interactive Weather Map New forecast layout! Learn more

10-Day Weather Forecast

Advertisements
Track Severe Weather on mobile